createdAt,value
2022-11-04T00:01:57.893Z,63.90
2022-11-04T00:04:26.942Z,63.90
2022-11-04T00:06:54.409Z,63.90
2022-11-04T00:09:23.021Z,63.90
2022-11-04T00:12:09.138Z,63.90
2022-11-04T00:14:36.446Z,63.90
2022-11-04T00:17:19.256Z,64.00
2022-11-04T00:20:05.680Z,63.90
2022-11-04T00:22:51.214Z,64.00
2022-11-04T00:25:36.633Z,64.00
2022-11-04T00:28:25.093Z,64.00
2022-11-04T00:30:56.506Z,64.10
2022-11-04T00:33:26.158Z,64.10
2022-11-04T00:35:55.284Z,64.10
2022-11-04T00:38:23.251Z,64.10
2022-11-04T00:40:50.204Z,64.10
2022-11-04T00:43:16.829Z,64.10
2022-11-04T00:45:43.697Z,64.20
2022-11-04T00:48:11.248Z,64.20
2022-11-04T00:50:38.253Z,64.20
2022-11-04T00:53:05.260Z,64.20
2022-11-04T00:55:32.022Z,64.20
2022-11-04T00:57:59.086Z,64.20
2022-11-04T01:00:25.875Z,64.50
2022-11-04T01:02:53.146Z,64.30
2022-11-04T01:05:19.734Z,64.20
2022-11-04T01:07:46.291Z,64.30
2022-11-04T01:10:13.254Z,64.30
2022-11-04T01:12:39.831Z,64.40
2022-11-04T01:15:06.757Z,64.30
2022-11-04T01:17:33.365Z,64.30
2022-11-04T01:19:59.970Z,64.30
2022-11-04T01:22:26.546Z,64.30
2022-11-04T01:24:53.201Z,64.30
2022-11-04T01:27:19.799Z,64.30
2022-11-04T01:29:46.817Z,64.30
2022-11-04T01:32:13.394Z,64.40
2022-11-04T01:34:43.265Z,64.40
2022-11-04T01:37:10.463Z,64.40
2022-11-04T01:39:37.061Z,64.40
2022-11-04T01:44:59.567Z,64.40
2022-11-04T01:47:39.786Z,64.40
2022-11-04T01:50:14.002Z,64.40
2022-11-04T01:52:52.701Z,64.40
2022-11-04T01:55:27.527Z,64.40
2022-11-04T01:57:59.234Z,64.40
2022-11-04T02:00:25.874Z,64.50
2022-11-04T02:03:09.918Z,64.50
2022-11-04T02:05:37.561Z,64.50
2022-11-04T02:08:06.101Z,64.50
2022-11-04T02:10:33.193Z,64.50
2022-11-04T02:13:05.553Z,64.50
2022-11-04T02:15:44.097Z,64.50
2022-11-04T02:19:04.998Z,64.50
2022-11-04T02:21:52.652Z,64.50
2022-11-04T02:24:25.075Z,64.50
2022-11-04T02:27:21.271Z,64.40
2022-11-04T02:30:07.803Z,64.50
2022-11-04T02:32:49.454Z,64.50
2022-11-04T02:35:38.918Z,64.50
2022-11-04T02:38:12.259Z,64.50
2022-11-04T02:41:00.713Z,64.50
2022-11-04T02:43:52.053Z,64.40
2022-11-04T02:46:18.605Z,64.50
2022-11-04T02:48:59.722Z,64.50
2022-11-04T02:51:34.170Z,64.50
2022-11-04T02:54:18.066Z,64.50
2022-11-04T02:56:49.904Z,64.50
2022-11-04T02:59:35.218Z,64.50
2022-11-04T03:02:07.183Z,64.50
2022-11-04T03:04:38.821Z,64.50
2022-11-04T03:07:09.224Z,64.50
2022-11-04T03:09:39.262Z,64.60
2022-11-04T03:12:14.836Z,64.50
2022-11-04T03:14:46.786Z,64.50
2022-11-04T03:17:36.633Z,64.50
2022-11-04T03:20:07.228Z,64.60
2022-11-04T03:22:38.990Z,64.60
2022-11-04T03:25:07.944Z,64.60
2022-11-04T03:27:54.137Z,64.60
2022-11-04T03:30:23.338Z,64.60
2022-11-04T03:33:04.437Z,64.50
2022-11-04T03:35:31.489Z,64.60
2022-11-04T03:37:58.510Z,64.50
2022-11-04T03:40:26.318Z,64.50
2022-11-04T03:43:12.983Z,64.60
2022-11-04T03:45:40.770Z,64.50
2022-11-04T03:48:07.871Z,64.50
2022-11-04T03:50:45.609Z,64.60
2022-11-04T03:53:14.156Z,64.50
2022-11-04T03:55:59.837Z,64.50
2022-11-04T03:58:54.682Z,64.50
2022-11-04T04:01:40.086Z,64.50
2022-11-04T04:04:16.665Z,64.50
2022-11-04T04:06:45.119Z,64.50
2022-11-04T04:09:20.505Z,64.50
2022-11-04T04:11:52.911Z,64.50
2022-11-04T04:14:39.871Z,64.50
2022-11-04T04:17:33.871Z,64.50
2022-11-04T04:20:04.727Z,64.50
2022-11-04T04:22:37.463Z,64.40
2022-11-04T04:25:26.596Z,64.50
2022-11-04T04:27:55.378Z,64.50
2022-11-04T04:30:22.003Z,64.50
2022-11-04T04:33:09.110Z,64.60
2022-11-04T04:35:42.271Z,64.50
2022-11-04T04:38:42.162Z,64.50
2022-11-04T04:41:39.871Z,64.50
2022-11-04T04:44:34.321Z,64.50
2022-11-04T04:47:02.621Z,64.50
2022-11-04T04:49:34.980Z,64.50
2022-11-04T04:52:07.178Z,64.50
2022-11-04T04:54:33.752Z,64.50
2022-11-04T04:57:00.324Z,64.60
2022-11-04T04:59:26.937Z,64.60
2022-11-04T05:01:53.618Z,64.60
2022-11-04T05:04:20.299Z,64.60
2022-11-04T05:06:46.877Z,64.60
2022-11-04T05:09:13.451Z,64.60
2022-11-04T05:11:40.082Z,64.60
2022-11-04T05:14:06.671Z,64.60
2022-11-04T05:16:37.952Z,64.60
2022-11-04T05:19:07.122Z,64.70
2022-11-04T05:21:33.718Z,64.70
2022-11-04T05:24:00.295Z,64.70
2022-11-04T05:26:26.910Z,64.80
2022-11-04T05:28:53.526Z,64.70
2022-11-04T05:31:20.106Z,64.70
2022-11-04T05:33:46.742Z,64.70
2022-11-04T05:36:15.770Z,64.70
2022-11-04T05:38:43.308Z,64.80
2022-11-04T05:41:12.351Z,64.70
2022-11-04T05:43:38.955Z,64.80
2022-11-04T05:46:05.815Z,64.80
2022-11-04T05:48:37.722Z,64.80
2022-11-04T05:51:06.854Z,64.80
2022-11-04T05:53:33.433Z,64.80
2022-11-04T05:56:00.032Z,64.80
2022-11-04T05:58:26.598Z,64.80
2022-11-04T06:00:53.166Z,64.70
2022-11-04T06:03:19.793Z,64.80
2022-11-04T06:05:47.643Z,64.70
2022-11-04T06:08:14.202Z,64.70
2022-11-04T06:10:42.706Z,64.70
2022-11-04T06:13:09.388Z,64.80
2022-11-04T06:15:36.000Z,64.60
2022-11-04T06:18:02.656Z,64.60
2022-11-04T06:20:29.425Z,64.60
2022-11-04T06:22:56.009Z,64.80
2022-11-04T06:25:22.630Z,64.50
2022-11-04T06:27:49.267Z,64.20
2022-11-04T06:30:15.850Z,64.20
2022-11-04T06:32:42.491Z,64.20
2022-11-04T06:35:09.285Z,64.20
2022-11-04T06:37:35.971Z,64.50
2022-11-04T06:40:02.772Z,64.50
2022-11-04T06:42:29.339Z,64.60
2022-11-04T06:44:55.947Z,64.90
2022-11-04T06:47:24.957Z,65.00
2022-11-04T06:49:51.694Z,65.70
2022-11-04T06:52:18.321Z,65.90
2022-11-04T06:54:44.898Z,66.00
2022-11-04T06:57:12.216Z,66.20
2022-11-04T06:59:38.846Z,66.00
2022-11-04T07:02:05.641Z,66.00
2022-11-04T07:04:32.285Z,66.00
2022-11-04T07:06:58.867Z,66.10
2022-11-04T07:09:25.707Z,66.10
2022-11-04T07:11:52.386Z,66.10
2022-11-04T07:14:18.973Z,66.20
2022-11-04T07:16:45.560Z,66.30
2022-11-04T07:19:12.139Z,66.30
2022-11-04T07:21:38.749Z,66.20
2022-11-04T07:24:05.749Z,66.40
2022-11-04T07:26:32.362Z,66.10
2022-11-04T07:29:00.859Z,66.10
2022-11-04T07:31:28.015Z,66.10
2022-11-04T07:33:54.609Z,66.10
2022-11-04T07:36:21.553Z,66.10
2022-11-04T07:38:48.190Z,66.10
2022-11-04T07:41:15.372Z,66.00
2022-11-04T07:43:41.983Z,66.10
2022-11-04T07:46:14.607Z,66.10
2022-11-04T07:48:41.195Z,66.10
2022-11-04T07:51:10.898Z,66.00
2022-11-04T07:53:37.634Z,65.90
2022-11-04T07:56:06.242Z,66.00
2022-11-04T07:58:33.039Z,66.00
2022-11-04T08:01:01.429Z,66.00
2022-11-04T08:03:28.166Z,66.10
2022-11-04T08:05:56.995Z,66.00
2022-11-04T08:08:23.794Z,66.00
2022-11-04T08:10:55.250Z,65.90
2022-11-04T08:13:21.902Z,66.00
2022-11-04T08:15:48.715Z,65.90
2022-11-04T08:18:15.743Z,66.00
2022-11-04T08:20:48.468Z,66.00
2022-11-04T08:23:15.148Z,66.00
2022-11-04T08:25:41.774Z,66.00
2022-11-04T08:28:08.359Z,66.00
2022-11-04T08:30:34.953Z,65.90
2022-11-04T08:33:01.576Z,66.00
2022-11-04T08:35:28.173Z,66.00
2022-11-04T08:37:54.743Z,65.90
2022-11-04T08:40:21.363Z,65.90
2022-11-04T08:42:47.974Z,66.00
2022-11-04T08:45:14.570Z,66.00
2022-11-04T08:47:41.157Z,66.00
2022-11-04T08:50:07.931Z,66.00
2022-11-04T08:52:34.566Z,66.00
2022-11-04T08:55:01.156Z,65.90
2022-11-04T08:57:27.742Z,66.00
2022-11-04T08:59:54.392Z,66.00
2022-11-04T09:02:21.122Z,66.00
2022-11-04T09:04:47.724Z,66.00
2022-11-04T09:07:14.287Z,66.00
2022-11-04T09:09:41.447Z,65.90
2022-11-04T09:12:11.777Z,66.00
2022-11-04T09:14:38.383Z,66.00
2022-11-04T09:17:05.039Z,66.00
2022-11-04T09:19:32.492Z,66.00
2022-11-04T09:21:59.131Z,65.90
2022-11-04T09:24:25.851Z,66.00
2022-11-04T09:26:52.467Z,65.90
2022-11-04T09:29:19.038Z,65.90
2022-11-04T09:31:45.657Z,65.90
2022-11-04T09:34:12.253Z,66.00
2022-11-04T09:36:39.096Z,66.00
2022-11-04T09:39:05.753Z,65.90
2022-11-04T09:41:47.735Z,65.90
2022-11-04T09:44:27.050Z,65.80
2022-11-04T09:46:58.418Z,65.90
2022-11-04T09:49:29.690Z,65.90
2022-11-04T09:51:58.862Z,65.80
2022-11-04T09:54:34.657Z,65.80
2022-11-04T09:57:02.492Z,65.80
2022-11-04T09:59:33.212Z,65.90
2022-11-04T10:02:27.326Z,65.80
2022-11-04T10:05:17.065Z,65.80
2022-11-04T10:08:06.031Z,65.80
2022-11-04T10:10:41.604Z,65.80
2022-11-04T10:13:19.712Z,65.80
2022-11-04T10:16:07.413Z,65.80
2022-11-04T10:18:56.499Z,65.80
2022-11-04T10:21:35.108Z,65.80
2022-11-04T10:24:15.675Z,65.80
2022-11-04T10:27:04.753Z,65.80
2022-11-04T10:29:42.321Z,65.70
2022-11-04T10:32:22.458Z,65.80
2022-11-04T10:35:05.331Z,65.80
2022-11-04T10:37:32.224Z,66.00
2022-11-04T10:40:28.810Z,65.80
2022-11-04T10:43:00.714Z,65.80
2022-11-04T10:45:57.970Z,65.80
2022-11-04T10:48:38.746Z,65.80
2022-11-04T10:51:05.783Z,66.10
2022-11-04T10:53:33.373Z,65.70
2022-11-04T10:56:25.681Z,65.70
2022-11-04T10:58:55.155Z,65.70
2022-11-04T11:01:31.118Z,65.80
2022-11-04T11:03:58.553Z,65.70
2022-11-04T11:06:30.610Z,65.70
2022-11-04T11:08:58.891Z,65.70
2022-11-04T11:11:47.427Z,65.70
2022-11-04T11:14:30.937Z,65.70
2022-11-04T11:17:19.795Z,65.60
2022-11-04T11:19:55.296Z,65.70
2022-11-04T11:22:37.266Z,65.70
2022-11-04T11:25:30.856Z,65.60
2022-11-04T11:28:06.888Z,65.70
2022-11-04T11:30:41.917Z,65.70
2022-11-04T11:33:46.136Z,65.60
2022-11-04T11:36:28.487Z,65.60
2022-11-04T11:39:12.137Z,65.70
2022-11-04T11:42:01.968Z,65.60
2022-11-04T11:44:38.440Z,65.60
2022-11-04T11:47:06.981Z,65.60
2022-11-04T11:49:37.971Z,65.60
2022-11-04T11:52:26.300Z,65.60
2022-11-04T11:54:57.089Z,65.60
2022-11-04T12:00:39.647Z,65.70
2022-11-04T12:10:02.155Z,65.60
2022-11-04T12:12:58.464Z,65.70
2022-11-04T12:15:32.668Z,65.70
2022-11-04T12:18:08.266Z,65.70
2022-11-04T12:20:57.996Z,65.60
2022-11-04T12:23:43.391Z,65.60
2022-11-04T12:26:24.451Z,65.70
2022-11-04T12:29:10.820Z,65.70
2022-11-04T12:31:49.189Z,65.60
2022-11-04T12:34:33.141Z,65.60
2022-11-04T12:37:29.464Z,65.70
2022-11-04T12:40:21.386Z,65.70
2022-11-04T12:43:19.366Z,65.60
2022-11-04T12:45:51.748Z,65.60
2022-11-04T12:48:42.854Z,65.70
2022-11-04T12:51:27.122Z,65.60
2022-11-04T12:54:22.003Z,65.60
2022-11-04T12:57:15.838Z,65.60
2022-11-04T13:00:01.331Z,65.50
2022-11-04T13:02:54.498Z,65.60
2022-11-04T13:05:21.071Z,65.60
2022-11-04T13:07:59.470Z,65.50
2022-11-04T13:10:53.851Z,65.50
2022-11-04T13:13:29.815Z,65.50
2022-11-04T13:16:00.075Z,65.50
2022-11-04T13:18:31.496Z,65.40
2022-11-04T13:21:18.613Z,65.40
2022-11-04T13:23:51.977Z,65.50
2022-11-04T13:26:19.014Z,65.50
2022-11-04T13:29:04.441Z,65.50
2022-11-04T13:31:43.731Z,66.10
2022-11-04T13:34:32.930Z,65.60
2022-11-04T13:37:02.435Z,65.60
2022-11-04T13:39:40.929Z,65.50
2022-11-04T13:42:22.519Z,65.60
2022-11-04T13:44:52.579Z,65.60
2022-11-04T13:47:24.285Z,65.50
2022-11-04T13:49:54.395Z,65.40
2022-11-04T13:52:23.959Z,65.40
2022-11-04T13:54:50.494Z,65.50
2022-11-04T13:57:32.646Z,65.50
2022-11-04T14:00:12.094Z,65.40
2022-11-04T14:02:50.446Z,65.40
2022-11-04T14:05:37.052Z,65.40
2022-11-04T14:08:03.609Z,65.40
2022-11-04T14:10:59.653Z,65.30
2022-11-04T14:13:37.260Z,65.50
2022-11-04T14:16:25.314Z,65.50
2022-11-04T14:18:53.775Z,65.50
2022-11-04T14:21:22.990Z,65.50
2022-11-04T14:24:00.287Z,65.40
2022-11-04T14:26:40.194Z,65.40
2022-11-04T14:29:28.097Z,65.50
2022-11-04T14:31:57.745Z,65.50
2022-11-04T14:34:31.527Z,65.30
2022-11-04T14:37:00.602Z,65.40
2022-11-04T14:39:36.926Z,65.30
2022-11-04T14:42:06.553Z,65.30
2022-11-04T14:44:49.373Z,65.40
2022-11-04T14:47:29.533Z,65.30
2022-11-04T14:49:58.881Z,65.40
2022-11-04T14:52:34.978Z,65.40
2022-11-04T14:55:13.290Z,65.40
2022-11-04T14:57:47.768Z,65.40
2022-11-04T15:00:32.876Z,65.40
2022-11-04T15:06:11.594Z,65.30
2022-11-04T15:08:41.272Z,65.10
2022-11-04T15:11:42.426Z,56.20
2022-11-04T15:14:23.051Z,55.60
2022-11-04T15:16:55.737Z,59.10
2022-11-04T15:19:36.081Z,59.50
2022-11-04T15:22:05.330Z,60.30
2022-11-04T15:24:32.774Z,60.80
2022-11-04T15:27:03.716Z,60.80
2022-11-04T15:29:31.317Z,61.70
2022-11-04T15:32:04.880Z,62.10
2022-11-04T15:34:33.367Z,61.90
2022-11-04T15:37:05.206Z,61.70
2022-11-04T15:39:36.398Z,61.80
2022-11-04T15:42:26.038Z,62.10
2022-11-04T15:44:54.894Z,62.20
2022-11-04T15:47:25.134Z,62.40
2022-11-04T15:49:53.468Z,62.30
2022-11-04T15:52:25.802Z,62.50
2022-11-04T15:55:00.094Z,62.60
2022-11-04T15:57:32.208Z,62.60
2022-11-04T16:00:02.777Z,62.70
2022-11-04T16:02:35.361Z,62.80
2022-11-04T16:05:27.046Z,62.90
2022-11-04T16:07:56.142Z,62.90
2022-11-04T16:10:24.486Z,63.10
2022-11-04T16:13:15.976Z,63.10
2022-11-04T16:15:42.514Z,63.10
2022-11-04T16:18:33.106Z,63.20
2022-11-04T16:21:06.732Z,64.00
2022-11-04T16:23:44.335Z,63.30
2022-11-04T16:26:11.384Z,63.30
2022-11-04T16:28:40.598Z,63.40
2022-11-04T16:31:23.096Z,63.40
2022-11-04T16:33:50.628Z,64.30
2022-11-04T16:36:24.542Z,63.60
2022-11-04T16:38:59.442Z,64.30
2022-11-04T16:41:32.186Z,63.80
2022-11-04T16:43:59.206Z,63.70
2022-11-04T16:46:26.302Z,63.70
2022-11-04T16:48:52.854Z,63.70
2022-11-04T16:51:23.789Z,63.80
2022-11-04T16:53:53.254Z,63.80
2022-11-04T16:56:23.078Z,63.90
2022-11-04T16:58:49.635Z,63.90
2022-11-04T17:01:16.482Z,64.00
2022-11-04T17:03:43.389Z,63.90
2022-11-04T17:06:11.896Z,63.90
2022-11-04T17:08:38.598Z,63.90
2022-11-04T17:11:05.867Z,64.20
2022-11-04T17:13:36.403Z,61.90
2022-11-04T17:16:05.024Z,63.20
2022-11-04T17:18:33.153Z,63.40
2022-11-04T17:21:02.253Z,63.70
2022-11-04T17:23:28.826Z,63.80
2022-11-04T17:25:55.481Z,63.30
2022-11-04T17:28:22.209Z,62.70
2022-11-04T17:30:48.947Z,63.00
2022-11-04T17:33:18.036Z,63.00
2022-11-04T17:35:48.420Z,63.10
2022-11-04T17:38:16.089Z,63.10
2022-11-04T17:41:01.573Z,63.10
2022-11-04T17:43:47.220Z,63.00
2022-11-04T17:46:33.111Z,63.10
2022-11-04T17:49:20.670Z,63.10
2022-11-04T17:51:50.487Z,63.10
2022-11-04T17:54:17.333Z,63.10
2022-11-04T17:56:43.940Z,63.10
2022-11-04T17:59:12.250Z,63.30
2022-11-04T18:01:40.439Z,63.30
2022-11-04T18:04:07.445Z,63.20
2022-11-04T18:06:35.948Z,63.20
2022-11-04T18:09:03.780Z,63.20
2022-11-04T18:11:49.709Z,63.20
2022-11-04T18:14:17.587Z,63.20
2022-11-04T18:16:47.449Z,63.10
2022-11-04T18:19:15.291Z,63.70
2022-11-04T18:21:41.926Z,63.80
2022-11-04T18:24:09.454Z,63.90
2022-11-04T18:26:36.534Z,63.80
2022-11-04T18:29:03.676Z,64.00
2022-11-04T18:31:35.890Z,64.00
2022-11-04T18:34:06.380Z,64.30
2022-11-04T18:36:33.795Z,64.20
2022-11-04T18:39:01.083Z,64.30
2022-11-04T18:41:27.939Z,64.50
2022-11-04T18:43:54.545Z,64.20
2022-11-04T18:46:21.146Z,64.20
2022-11-04T18:48:50.147Z,64.10
2022-11-04T18:51:19.502Z,65.00
2022-11-04T18:53:46.585Z,64.10
2022-11-04T18:56:19.657Z,64.10
2022-11-04T18:58:47.094Z,64.10
2022-11-04T19:01:34.383Z,64.10
2022-11-04T19:04:01.699Z,64.30
2022-11-04T19:06:31.580Z,64.20
2022-11-04T19:09:05.068Z,64.60
2022-11-04T19:11:39.512Z,64.40
2022-11-04T19:14:09.684Z,64.80
2022-11-04T19:16:37.565Z,65.30
2022-11-04T19:19:07.220Z,64.60
2022-11-04T19:21:34.401Z,66.00
2022-11-04T19:24:01.682Z,66.80
2022-11-04T19:26:31.025Z,65.90
2022-11-04T19:28:58.720Z,65.50
2022-11-04T19:31:27.943Z,65.50
2022-11-04T19:33:57.223Z,67.10
2022-11-04T19:36:24.681Z,66.20
2022-11-04T19:38:55.705Z,65.90
2022-11-04T19:41:41.947Z,67.10
2022-11-04T19:44:11.136Z,66.80
2022-11-04T19:46:38.593Z,66.50
2022-11-04T19:49:06.207Z,66.50
2022-11-04T19:51:33.095Z,66.60
2022-11-04T19:54:00.102Z,66.70
2022-11-04T19:56:26.774Z,66.80
2022-11-04T19:58:53.501Z,66.90
2022-11-04T20:01:21.082Z,67.10
2022-11-04T20:03:48.069Z,67.10
2022-11-04T20:06:16.419Z,67.20
2022-11-04T20:08:45.718Z,67.20
2022-11-04T20:11:13.746Z,67.10
2022-11-04T20:13:49.945Z,67.30
2022-11-04T20:16:23.028Z,67.80
2022-11-04T20:18:52.308Z,67.70
2022-11-04T20:21:20.651Z,67.70
2022-11-04T20:23:47.514Z,67.60
2022-11-04T20:26:20.596Z,67.60
2022-11-04T20:28:47.634Z,67.80
2022-11-04T20:31:20.589Z,67.60
2022-11-04T20:33:48.806Z,67.80
2022-11-04T20:36:17.337Z,67.80
2022-11-04T20:38:44.162Z,68.30
2022-11-04T20:41:18.556Z,69.00
2022-11-04T20:43:46.780Z,64.60
2022-11-04T20:46:19.574Z,62.30
2022-11-04T20:48:47.580Z,61.40
2022-11-04T20:51:17.594Z,61.00
2022-11-04T20:53:44.314Z,60.40
2022-11-04T20:56:14.060Z,60.10
2022-11-04T20:58:42.139Z,59.70
2022-11-04T21:01:11.316Z,59.50
2022-11-04T21:03:38.046Z,59.40
2022-11-04T21:06:05.017Z,59.10
2022-11-04T21:08:34.935Z,59.00
2022-11-04T21:11:02.799Z,58.90
2022-11-04T21:13:29.623Z,58.70
2022-11-04T21:15:57.749Z,58.60
2022-11-04T21:18:24.787Z,58.40
2022-11-04T21:20:52.006Z,58.70
2022-11-04T21:23:20.327Z,54.40
2022-11-04T21:25:53.773Z,57.10
2022-11-04T21:28:20.415Z,58.10
2022-11-04T21:30:49.367Z,59.00
2022-11-04T21:33:16.603Z,59.60
2022-11-04T21:35:44.054Z,60.30
2022-11-04T21:38:17.346Z,60.50
2022-11-04T21:40:44.435Z,61.00
2022-11-04T21:43:12.027Z,61.60
2022-11-04T21:45:38.923Z,61.70
2022-11-04T21:48:05.764Z,61.90
2022-11-04T21:50:32.470Z,62.30
2022-11-04T21:52:59.205Z,62.10
2022-11-04T21:55:25.872Z,62.60
2022-11-04T21:57:52.496Z,63.10
2022-11-04T22:00:19.050Z,63.30
2022-11-04T22:02:51.477Z,63.40
2022-11-04T22:05:18.573Z,63.80
2022-11-04T22:08:03.971Z,63.90
2022-11-04T22:10:30.527Z,64.40
2022-11-04T22:12:57.131Z,64.70
2022-11-04T22:15:42.532Z,65.00
2022-11-04T22:18:09.052Z,65.10
2022-11-04T22:20:36.914Z,65.40
2022-11-04T22:23:03.734Z,65.50
2022-11-04T22:25:30.654Z,65.60
2022-11-04T22:27:57.312Z,65.80
2022-11-04T22:30:24.210Z,65.90
2022-11-04T22:32:52.015Z,66.00
2022-11-04T22:35:18.558Z,66.10
2022-11-04T22:37:45.092Z,66.20
2022-11-04T22:40:12.081Z,66.40
2022-11-04T22:42:38.933Z,66.50
2022-11-04T22:45:05.999Z,66.50
2022-11-04T22:47:32.534Z,66.60
2022-11-04T22:49:59.062Z,66.70
2022-11-04T22:52:25.628Z,66.80
2022-11-04T22:54:52.180Z,66.90
2022-11-04T22:57:18.732Z,67.00
2022-11-04T22:59:45.319Z,67.10
2022-11-04T23:02:11.976Z,67.10
2022-11-04T23:04:40.408Z,67.20
2022-11-04T23:07:07.426Z,67.20
2022-11-04T23:09:54.035Z,67.30
2022-11-04T23:12:39.043Z,67.40
2022-11-04T23:15:24.504Z,67.50
2022-11-04T23:18:09.895Z,67.60
2022-11-04T23:20:36.439Z,67.70
2022-11-04T23:23:26.096Z,67.80
2022-11-04T23:25:53.123Z,67.80
2022-11-04T23:28:38.186Z,67.90
2022-11-04T23:31:04.747Z,68.10
2022-11-04T23:33:49.779Z,68.00
2022-11-04T23:36:35.066Z,68.00
2022-11-04T23:39:01.587Z,68.10
2022-11-04T23:41:57.204Z,68.10
2022-11-04T23:44:42.620Z,68.20
2022-11-04T23:47:27.840Z,68.30
2022-11-04T23:50:13.218Z,68.40
2022-11-04T23:52:58.427Z,68.40
2022-11-04T23:55:43.983Z,68.60
2022-11-04T23:58:29.087Z,69.30
